Terminal Aerodrome Forecast
Issued by NWS

Home | Current Version | Previous Version | Graphics & Text | Print | Product List | Glossary On
Versions: 1 2 3 4 5 6 7 8 9 10 11 12 13 14 15
942
FTUS43 KBIS 170535
TAFMOT
TAF
KMOT 170535Z 1706/1806 26010KT P6SM BKN140
     FM171700 28013G21KT P6SM SCT200
     FM180000 27006KT P6SM SCT250
     FM180500 01004KT P6SM BKN140=

USA.gov is the U.S. government's official web portal to all federal, state and local government web resources and services.